CDT,Max TemperatureF,Mean TemperatureF,Min TemperatureF,Max Dew PointF,MeanDew PointF,Min DewpointF,Max Humidity, Mean Humidity, Min Humidity, Max Sea Level PressureIn, Mean Sea Level PressureIn, Min Sea Level PressureIn, Max VisibilityMiles, Mean VisibilityMiles, Min VisibilityMiles, Max Wind SpeedMPH, Mean Wind SpeedMPH, Max Gust SpeedMPH,PrecipitationIn, CloudCover, Events, WindDirDegrees
2012-10-1,78,67,59,60,56,48,96,75,37,29.79,29.74,29.70,10,9,4,10,6,17,0.04,5,Rain,339
2012-10-2,77,66,57,57,54,49,93,70,41,29.97,29.89,29.78,10,10,10,5,1,,0.00,0,,346
2012-10-3,79,67,55,59,57,54,100,73,43,30.08,30.02,29.97,10,10,8,8,1,,0.00,0,,134
2012-10-4,82,70,57,65,61,57,97,76,51,30.20,30.13,30.09,10,9,6,10,2,17,0.01,0,,132
2012-10-5,84,74,64,67,64,63,97,75,49,30.12,30.06,29.97,10,10,7,14,5,,0.00,2,,189
2012-10-6,70,59,48,65,50,39,88,80,68,30.23,30.12,30.03,10,10,10,12,8,20,0.00,8,,32
2012-10-7,57,52,46,46,42,39,86,72,53,30.30,30.22,30.16,10,10,7,12,8,17,0.00,7,Rain,24
2012-10-8,64,55,48,47,46,43,96,81,52,30.27,30.21,30.13,10,10,7,8,5,,0.05,5,Rain,51
2012-10-9,75,59,43,63,53,42,100,78,60,30.14,30.05,29.93,10,10,9,12,3,,0.00,4,,152
2012-10-10,75,68,64,66,63,60,97,82,64,30.19,30.11,30.02,10,10,6,9,5,,0.00,7,Rain,80
2012-10-11,84,72,61,68,63,57,93,77,54,30.21,30.15,30.12,10,10,10,8,4,,0.00,4,,145
2012-10-12,84,74,66,66,64,61,93,75,51,30.24,30.17,30.14,10,10,7,13,4,,0.00,1,,141
2012-10-13,84,74,64,70,66,62,100,81,56,30.15,30.08,29.94,10,7,2,20,8,30,0.00,4,,154
2012-10-14,84,73,64,72,66,56,100,83,44,30.04,29.98,29.91,10,8,1,16,10,28,1.95,5,Rain-Thunderstorm,249
2012-10-15,79,66,54,58,54,47,100,71,34,30.11,30.04,29.97,10,10,10,7,0,,0.01,0,,30
2012-10-16,70,62,54,59,56,53,100,81,57,30.00,29.90,29.80,10,9,3,12,3,,0.00,0,,156
2012-10-17,82,71,60,70,64,58,96,79,61,29.77,29.69,29.57,10,10,10,21,11,31,0.00,4,,192
2012-10-18,75,65,53,58,46,33,90,55,22,29.95,29.89,29.72,10,10,10,10,2,,0.00,0,,316
2012-10-19,73,62,50,47,38,31,74,48,21,29.97,29.92,29.88,10,10,10,17,6,24,0.00,0,,271
2012-10-20,81,64,46,54,47,43,96,60,28,29.96,29.90,29.85,10,10,10,13,3,22,0.00,0,,174
2012-10-21,84,75,66,68,62,56,81,71,55,30.01,29.96,29.89,10,10,10,16,10,22,0.00,5,,156
2012-10-22,84,74,63,67,63,59,97,76,43,30.09,30.02,29.97,10,10,9,12,8,,0.00,1,,158
2012-10-23,81,72,63,66,64,62,100,84,54,30.07,30.01,29.96,10,8,1,10,5,,0.00,4,,160
2012-10-24,82,72,62,67,65,61,96,82,52,30.07,29.99,29.92,10,9,4,14,6,,0.00,1,,155
2012-10-25,82,73,63,70,67,62,100,84,60,29.97,29.92,29.86,10,9,2,14,8,23,0.14,5,Rain-Thunderstorm,172
2012-10-26,61,55,46,61,52,44,100,93,82,30.25,30.09,29.97,10,7,1,15,8,23,1.35,8,Rain-Thunderstorm,4
2012-10-27,57,48,39,45,38,33,93,71,42,30.28,30.20,30.13,10,10,10,13,5,,0.00,0,,352
2012-10-28,61,50,39,41,35,30,92,66,33,30.27,30.21,30.18,10,10,10,10,4,17,0.00,0,,348
2012-10-29,62,50,37,42,37,32,93,69,34,30.33,30.24,30.16,10,10,10,7,1,,0.00,0,,3
2012-10-30,70,53,37,45,41,38,100,70,32,30.15,30.07,29.98,10,9,2,9,2,,0.00,0,,235
2012-10-31,78,64,50,58,51,44,97,70,42,30.01,29.98,29.95,10,10,9,10,4,,0.00,0,,231